sensor_id;sensor_type;location;lat;lon;timestamp;P1;durP1;ratioP1;P2;durP2;ratioP2
49812;SDS011;35706;52.100;5.056;2023-03-01T00:00:37;10.27;;;7.50;;
49812;SDS011;35706;52.100;5.056;2023-03-01T00:01:38;10.35;;;7.72;;
49812;SDS011;35706;52.100;5.056;2023-03-01T00:02:38;11.88;;;6.78;;
49812;SDS011;35706;52.100;5.056;2023-03-01T00:03:38;13.43;;;7.10;;
49812;SDS011;35706;52.100;5.056;2023-03-01T00:04:39;10.88;;;7.00;;
49812;SDS011;35706;52.100;5.056;2023-03-01T00:05:43;8.60;;;6.78;;
49812;SDS011;35706;52.100;5.056;2023-03-01T00:06:45;8.63;;;6.40;;
49812;SDS011;35706;52.100;5.056;2023-03-01T00:07:46;9.30;;;6.68;;
49812;SDS011;35706;52.100;5.056;2023-03-01T00:08:46;13.30;;;7.53;;
49812;SDS011;35706;52.100;5.056;2023-03-01T00:09:47;9.13;;;6.32;;
49812;SDS011;35706;52.100;5.056;2023-03-01T00:10:48;10.20;;;7.00;;
49812;SDS011;35706;52.100;5.056;2023-03-01T00:11:48;13.52;;;6.97;;
49812;SDS011;35706;52.100;5.056;2023-03-01T00:12:48;12.07;;;8.07;;
49812;SDS011;35706;52.100;5.056;2023-03-01T00:13:50;10.32;;;6.45;;
49812;SDS011;35706;52.100;5.056;2023-03-01T00:14:52;9.30;;;6.43;;
49812;SDS011;35706;52.100;5.056;2023-03-01T00:15:52;11.10;;;6.57;;
49812;SDS011;35706;52.100;5.056;2023-03-01T00:16:52;8.02;;;6.53;;
49812;SDS011;35706;52.100;5.056;2023-03-01T00:17:53;9.65;;;6.68;;
49812;SDS011;35706;52.100;5.056;2023-03-01T00:18:53;13.70;;;6.68;;
49812;SDS011;35706;52.100;5.056;2023-03-01T00:19:55;8.63;;;5.97;;
49812;SDS011;35706;52.100;5.056;2023-03-01T00:20:55;8.45;;;5.95;;
49812;SDS011;35706;52.100;5.056;2023-03-01T00:21:56;10.02;;;6.25;;
49812;SDS011;35706;52.100;5.056;2023-03-01T00:22:56;10.77;;;6.80;;
49812;SDS011;35706;52.100;5.056;2023-03-01T00:23:56;12.55;;;6.72;;
49812;SDS011;35706;52.100;5.056;2023-03-01T00:24:57;12.30;;;6.80;;
49812;SDS011;35706;52.100;5.056;2023-03-01T00:25:58;9.20;;;6.85;;
49812;SDS011;35706;52.100;5.056;2023-03-01T00:26:58;11.25;;;6.65;;
49812;SDS011;35706;52.100;5.056;2023-03-01T00:27:58;8.77;;;6.28;;
49812;SDS011;35706;52.100;5.056;2023-03-01T00:28:59;8.65;;;6.80;;
49812;SDS011;35706;52.100;5.056;2023-03-01T00:29:59;9.52;;;6.55;;
49812;SDS011;35706;52.100;5.056;2023-03-01T00:31:04;10.32;;;6.80;;
49812;SDS011;35706;52.100;5.056;2023-03-01T00:32:09;6.57;;;5.50;;
49812;SDS011;35706;52.100;5.056;2023-03-01T00:33:10;9.25;;;6.28;;
49812;SDS011;35706;52.100;5.056;2023-03-01T00:34:10;10.23;;;5.97;;
49812;SDS011;35706;52.100;5.056;2023-03-01T00:35:11;9.98;;;6.15;;
49812;SDS011;35706;52.100;5.056;2023-03-01T00:36:12;7.55;;;6.18;;
49812;SDS011;35706;52.100;5.056;2023-03-01T00:37:14;9.23;;;6.63;;
49812;SDS011;35706;52.100;5.056;2023-03-01T00:38:14;9.43;;;6.15;;
49812;SDS011;35706;52.100;5.056;2023-03-01T00:39:15;7.97;;;5.85;;
49812;SDS011;35706;52.100;5.056;2023-03-01T00:40:15;8.70;;;5.38;;
49812;SDS011;35706;52.100;5.056;2023-03-01T00:41:17;9.07;;;6.55;;
49812;SDS011;35706;52.100;5.056;2023-03-01T00:42:19;8.48;;;5.97;;
49812;SDS011;35706;52.100;5.056;2023-03-01T00:43:19;9.02;;;6.05;;
49812;SDS011;35706;52.100;5.056;2023-03-01T00:44:20;14.32;;;7.15;;
49812;SDS011;35706;52.100;5.056;2023-03-01T00:45:20;10.38;;;6.10;;
49812;SDS011;35706;52.100;5.056;2023-03-01T00:46:22;11.65;;;7.18;;
49812;SDS011;35706;52.100;5.056;2023-03-01T00:47:24;8.80;;;6.68;;
49812;SDS011;35706;52.100;5.056;2023-03-01T00:48:24;8.60;;;7.00;;
49812;SDS011;35706;52.100;5.056;2023-03-01T00:49:25;11.70;;;6.63;;
49812;SDS011;35706;52.100;5.056;2023-03-01T00:50:27;11.30;;;7.00;;
49812;SDS011;35706;52.100;5.056;2023-03-01T00:51:27;9.60;;;6.70;;
49812;SDS011;35706;52.100;5.056;2023-03-01T00:52:28;8.63;;;6.43;;
49812;SDS011;35706;52.100;5.056;2023-03-01T00:53:28;6.93;;;5.53;;
49812;SDS011;35706;52.100;5.056;2023-03-01T00:54:28;7.45;;;6.25;;
49812;SDS011;35706;52.100;5.056;2023-03-01T00:55:29;11.43;;;6.13;;
49812;SDS011;35706;52.100;5.056;2023-03-01T00:56:29;10.38;;;5.78;;
49812;SDS011;35706;52.100;5.056;2023-03-01T00:57:30;11.65;;;5.80;;
49812;SDS011;35706;52.100;5.056;2023-03-01T00:58:31;7.28;;;5.53;;
49812;SDS011;35706;52.100;5.056;2023-03-01T00:59:32;11.27;;;6.13;;
49812;SDS011;35706;52.100;5.056;2023-03-01T01:00:32;7.18;;;5.82;;
49812;SDS011;35706;52.100;5.056;2023-03-01T01:01:33;7.78;;;5.35;;
49812;SDS011;35706;52.100;5.056;2023-03-01T01:02:33;8.30;;;6.30;;
49812;SDS011;35706;52.100;5.056;2023-03-01T01:03:34;12.18;;;6.20;;
49812;SDS011;35706;52.100;5.056;2023-03-01T01:04:34;9.50;;;6.35;;
49812;SDS011;35706;52.100;5.056;2023-03-01T01:05:34;9.05;;;6.15;;
49812;SDS011;35706;52.100;5.056;2023-03-01T01:06:39;10.48;;;5.72;;
49812;SDS011;35706;52.100;5.056;2023-03-01T01:07:42;8.75;;;6.05;;
49812;SDS011;35706;52.100;5.056;2023-03-01T01:08:42;6.28;;;5.60;;
49812;SDS011;35706;52.100;5.056;2023-03-01T01:09:43;8.55;;;6.47;;
49812;SDS011;35706;52.100;5.056;2023-03-01T01:10:44;6.25;;;5.68;;
49812;SDS011;35706;52.100;5.056;2023-03-01T01:11:48;9.25;;;6.45;;
49812;SDS011;35706;52.100;5.056;2023-03-01T01:12:50;9.60;;;6.82;;
49812;SDS011;35706;52.100;5.056;2023-03-01T01:13:51;9.52;;;6.55;;
49812;SDS011;35706;52.100;5.056;2023-03-01T01:14:51;6.78;;;5.78;;
49812;SDS011;35706;52.100;5.056;2023-03-01T01:15:51;10.05;;;6.53;;
49812;SDS011;35706;52.100;5.056;2023-03-01T01:16:52;9.85;;;6.82;;
49812;SDS011;35706;52.100;5.056;2023-03-01T01:17:52;8.57;;;6.63;;
49812;SDS011;35706;52.100;5.056;2023-03-01T01:18:52;7.53;;;6.60;;
49812;SDS011;35706;52.100;5.056;2023-03-01T01:19:53;10.05;;;6.78;;
49812;SDS011;35706;52.100;5.056;2023-03-01T01:20:53;10.88;;;6.82;;
49812;SDS011;35706;52.100;5.056;2023-03-01T01:21:54;8.75;;;6.85;;
49812;SDS011;35706;52.100;5.056;2023-03-01T01:22:54;11.32;;;6.72;;
49812;SDS011;35706;52.100;5.056;2023-03-01T01:23:55;7.30;;;6.10;;
49812;SDS011;35706;52.100;5.056;2023-03-01T01:24:55;12.48;;;6.65;;
49812;SDS011;35706;52.100;5.056;2023-03-01T01:25:56;9.80;;;6.65;;
49812;SDS011;35706;52.100;5.056;2023-03-01T01:26:56;10.73;;;6.80;;
49812;SDS011;35706;52.100;5.056;2023-03-01T01:27:56;7.45;;;6.70;;
49812;SDS011;35706;52.100;5.056;2023-03-01T01:28:57;10.05;;;7.47;;
49812;SDS011;35706;52.100;5.056;2023-03-01T01:29:59;9.00;;;6.68;;
49812;SDS011;35706;52.100;5.056;2023-03-01T01:30:59;11.30;;;6.88;;
49812;SDS011;35706;52.100;5.056;2023-03-01T01:31:59;8.93;;;6.53;;
49812;SDS011;35706;52.100;5.056;2023-03-01T01:33:00;11.48;;;7.28;;
49812;SDS011;35706;52.100;5.056;2023-03-01T01:34:01;8.20;;;7.15;;
49812;SDS011;35706;52.100;5.056;2023-03-01T01:35:03;10.77;;;7.80;;
49812;SDS011;35706;52.100;5.056;2023-03-01T01:36:04;13.75;;;7.72;;
49812;SDS011;35706;52.100;5.056;2023-03-01T01:37:06;11.50;;;7.93;;
49812;SDS011;35706;52.100;5.056;2023-03-01T01:38:07;10.40;;;7.18;;
49812;SDS011;35706;52.100;5.056;2023-03-01T01:39:07;13.85;;;7.60;;
49812;SDS011;35706;52.100;5.056;2023-03-01T01:40:12;12.55;;;7.22;;
49812;SDS011;35706;52.100;5.056;2023-03-01T01:41:13;10.88;;;8.20;;
49812;SDS011;35706;52.100;5.056;2023-03-01T01:42:17;10.50;;;8.20;;
49812;SDS011;35706;52.100;5.056;2023-03-01T01:44:25;11.52;;;7.50;;
49812;SDS011;35706;52.100;5.056;2023-03-01T01:45:33;12.25;;;8.05;;
49812;SDS011;35706;52.100;5.056;2023-03-01T01:46:36;11.45;;;7.03;;
49812;SDS011;35706;52.100;5.056;2023-03-01T01:47:39;11.60;;;7.18;;
49812;SDS011;35706;52.100;5.056;2023-03-01T01:48:40;11.02;;;7.07;;
49812;SDS011;35706;52.100;5.056;2023-03-01T01:49:44;10.80;;;7.25;;
49812;SDS011;35706;52.100;5.056;2023-03-01T01:50:53;11.57;;;7.55;;
49812;SDS011;35706;52.100;5.056;2023-03-01T01:53:12;11.23;;;7.45;;
49812;SDS011;35706;52.100;5.056;2023-03-01T01:54:28;15.27;;;8.18;;
49812;SDS011;35706;52.100;5.056;2023-03-01T01:55:42;15.30;;;7.97;;
49812;SDS011;35706;52.100;5.056;2023-03-01T01:56:49;10.15;;;6.93;;
49812;SDS011;35706;52.100;5.056;2023-03-01T01:57:56;9.80;;;7.43;;
49812;SDS011;35706;52.100;5.056;2023-03-01T01:59:01;11.05;;;7.90;;
49812;SDS011;35706;52.100;5.056;2023-03-01T02:00:06;10.85;;;8.02;;
49812;SDS011;35706;52.100;5.056;2023-03-01T02:01:11;10.32;;;7.28;;
49812;SDS011;35706;52.100;5.056;2023-03-01T02:02:11;14.25;;;7.63;;
49812;SDS011;35706;52.100;5.056;2023-03-01T02:03:14;8.77;;;6.75;;
49812;SDS011;35706;52.100;5.056;2023-03-01T02:04:18;9.23;;;7.25;;
49812;SDS011;35706;52.100;5.056;2023-03-01T02:05:26;10.45;;;7.65;;
49812;SDS011;35706;52.100;5.056;2023-03-01T02:08:19;13.73;;;7.95;;
49812;SDS011;35706;52.100;5.056;2023-03-01T02:09:21;9.95;;;6.88;;
49812;SDS011;35706;52.100;5.056;2023-03-01T02:10:22;10.32;;;8.23;;
49812;SDS011;35706;52.100;5.056;2023-03-01T02:11:24;8.60;;;7.32;;
49812;SDS011;35706;52.100;5.056;2023-03-01T02:12:25;9.90;;;7.57;;
49812;SDS011;35706;52.100;5.056;2023-03-01T02:13:26;10.52;;;7.63;;
49812;SDS011;35706;52.100;5.056;2023-03-01T02:14:27;10.27;;;7.82;;
49812;SDS011;35706;52.100;5.056;2023-03-01T02:15:27;12.32;;;8.25;;
49812;SDS011;35706;52.100;5.056;2023-03-01T02:16:32;13.02;;;7.75;;
49812;SDS011;35706;52.100;5.056;2023-03-01T02:17:33;11.23;;;7.88;;
49812;SDS011;35706;52.100;5.056;2023-03-01T02:18:33;10.90;;;7.60;;
49812;SDS011;35706;52.100;5.056;2023-03-01T02:19:41;13.43;;;8.50;;
49812;SDS011;35706;52.100;5.056;2023-03-01T02:23:10;9.52;;;7.53;;
49812;SDS011;35706;52.100;5.056;2023-03-01T02:24:18;13.23;;;7.97;;
49812;SDS011;35706;52.100;5.056;2023-03-01T02:25:38;12.05;;;7.65;;
49812;SDS011;35706;52.100;5.056;2023-03-01T02:26:54;11.43;;;8.35;;
49812;SDS011;35706;52.100;5.056;2023-03-01T02:28:10;10.18;;;7.50;;
49812;SDS011;35706;52.100;5.056;2023-03-01T02:29:18;12.82;;;8.18;;
49812;SDS011;35706;52.100;5.056;2023-03-01T02:30:19;12.95;;;7.78;;
49812;SDS011;35706;52.100;5.056;2023-03-01T02:31:21;12.23;;;7.97;;
49812;SDS011;35706;52.100;5.056;2023-03-01T02:32:40;10.25;;;7.65;;
49812;SDS011;35706;52.100;5.056;2023-03-01T02:33:41;10.05;;;7.65;;
49812;SDS011;35706;52.100;5.056;2023-03-01T02:34:43;10.27;;;7.50;;
49812;SDS011;35706;52.100;5.056;2023-03-01T02:35:43;12.20;;;8.63;;
49812;SDS011;35706;52.100;5.056;2023-03-01T02:36:45;13.38;;;8.40;;
49812;SDS011;35706;52.100;5.056;2023-03-01T02:37:52;10.88;;;7.80;;
49812;SDS011;35706;52.100;5.056;2023-03-01T02:38:53;11.95;;;7.72;;
49812;SDS011;35706;52.100;5.056;2023-03-01T02:39:58;13.98;;;8.52;;
49812;SDS011;35706;52.100;5.056;2023-03-01T02:41:02;13.05;;;8.13;;
49812;SDS011;35706;52.100;5.056;2023-03-01T02:42:06;14.15;;;8.75;;
49812;SDS011;35706;52.100;5.056;2023-03-01T02:43:08;12.95;;;8.43;;
49812;SDS011;35706;52.100;5.056;2023-03-01T02:44:10;12.15;;;8.30;;
49812;SDS011;35706;52.100;5.056;2023-03-01T02:45:10;15.60;;;8.50;;
49812;SDS011;35706;52.100;5.056;2023-03-01T02:46:17;11.63;;;8.07;;
49812;SDS011;35706;52.100;5.056;2023-03-01T02:47:19;11.48;;;8.38;;
49812;SDS011;35706;52.100;5.056;2023-03-01T02:48:19;14.30;;;8.77;;
49812;SDS011;35706;52.100;5.056;2023-03-01T02:53:08;12.15;;;8.20;;
49812;SDS011;35706;52.100;5.056;2023-03-01T02:55:22;13.57;;;9.57;;
49812;SDS011;35706;52.100;5.056;2023-03-01T02:56:22;13.95;;;8.90;;
49812;SDS011;35706;52.100;5.056;2023-03-01T02:57:23;11.70;;;8.70;;
49812;SDS011;35706;52.100;5.056;2023-03-01T02:58:27;16.98;;;9.38;;
49812;SDS011;35706;52.100;5.056;2023-03-01T02:59:29;12.77;;;9.20;;
49812;SDS011;35706;52.100;5.056;2023-03-01T03:00:36;15.88;;;10.23;;
49812;SDS011;35706;52.100;5.056;2023-03-01T03:01:45;15.13;;;9.93;;
49812;SDS011;35706;52.100;5.056;2023-03-01T03:02:47;16.20;;;9.13;;
49812;SDS011;35706;52.100;5.056;2023-03-01T03:03:49;13.25;;;9.20;;
49812;SDS011;35706;52.100;5.056;2023-03-01T03:04:49;16.92;;;10.77;;
49812;SDS011;35706;52.100;5.056;2023-03-01T03:05:49;13.32;;;8.63;;
49812;SDS011;35706;52.100;5.056;2023-03-01T03:06:50;13.35;;;10.00;;
49812;SDS011;35706;52.100;5.056;2023-03-01T03:07:51;12.98;;;9.60;;
49812;SDS011;35706;52.100;5.056;2023-03-01T03:08:51;15.15;;;9.68;;
49812;SDS011;35706;52.100;5.056;2023-03-01T03:09:51;15.05;;;9.90;;
49812;SDS011;35706;52.100;5.056;2023-03-01T03:10:52;16.83;;;10.55;;
49812;SDS011;35706;52.100;5.056;2023-03-01T03:11:52;14.63;;;9.40;;
49812;SDS011;35706;52.100;5.056;2023-03-01T03:12:54;18.08;;;10.07;;
49812;SDS011;35706;52.100;5.056;2023-03-01T03:13:56;13.98;;;9.20;;
49812;SDS011;35706;52.100;5.056;2023-03-01T03:14:57;14.98;;;9.90;;
49812;SDS011;35706;52.100;5.056;2023-03-01T03:15:58;13.02;;;10.10;;
49812;SDS011;35706;52.100;5.056;2023-03-01T03:16:58;17.23;;;9.88;;
49812;SDS011;35706;52.100;5.056;2023-03-01T03:17:58;13.05;;;10.15;;
49812;SDS011;35706;52.100;5.056;2023-03-01T03:18:59;17.13;;;10.05;;
49812;SDS011;35706;52.100;5.056;2023-03-01T03:20:05;17.20;;;9.75;;
49812;SDS011;35706;52.100;5.056;2023-03-01T03:21:11;13.27;;;9.45;;
49812;SDS011;35706;52.100;5.056;2023-03-01T03:22:12;14.13;;;9.93;;
49812;SDS011;35706;52.100;5.056;2023-03-01T03:23:13;15.20;;;10.10;;
49812;SDS011;35706;52.100;5.056;2023-03-01T03:24:13;14.95;;;9.52;;
49812;SDS011;35706;52.100;5.056;2023-03-01T03:25:14;13.77;;;9.90;;
49812;SDS011;35706;52.100;5.056;2023-03-01T03:26:14;14.43;;;9.10;;
49812;SDS011;35706;52.100;5.056;2023-03-01T03:27:15;13.40;;;9.98;;
49812;SDS011;35706;52.100;5.056;2023-03-01T03:28:15;15.70;;;10.05;;
49812;SDS011;35706;52.100;5.056;2023-03-01T03:29:16;15.75;;;10.82;;
49812;SDS011;35706;52.100;5.056;2023-03-01T03:30:17;12.15;;;9.60;;
49812;SDS011;35706;52.100;5.056;2023-03-01T03:31:19;12.82;;;9.70;;
49812;SDS011;35706;52.100;5.056;2023-03-01T03:32:20;15.00;;;9.90;;
49812;SDS011;35706;52.100;5.056;2023-03-01T03:33:20;14.80;;;9.75;;
49812;SDS011;35706;52.100;5.056;2023-03-01T03:34:20;16.45;;;9.60;;
49812;SDS011;35706;52.100;5.056;2023-03-01T03:35:28;14.98;;;10.43;;
49812;SDS011;35706;52.100;5.056;2023-03-01T03:36:30;13.82;;;9.93;;
49812;SDS011;35706;52.100;5.056;2023-03-01T03:37:31;17.90;;;10.98;;
49812;SDS011;35706;52.100;5.056;2023-03-01T03:38:49;17.35;;;10.38;;
49812;SDS011;35706;52.100;5.056;2023-03-01T03:39:50;15.85;;;10.43;;
49812;SDS011;35706;52.100;5.056;2023-03-01T03:42:02;20.33;;;11.65;;
49812;SDS011;35706;52.100;5.056;2023-03-01T03:43:07;20.75;;;11.18;;
49812;SDS011;35706;52.100;5.056;2023-03-01T03:44:15;17.27;;;9.57;;
49812;SDS011;35706;52.100;5.056;2023-03-01T03:45:16;13.23;;;9.57;;
49812;SDS011;35706;52.100;5.056;2023-03-01T03:46:17;16.85;;;10.60;;
49812;SDS011;35706;52.100;5.056;2023-03-01T03:47:17;18.17;;;10.60;;
49812;SDS011;35706;52.100;5.056;2023-03-01T03:48:17;15.32;;;11.15;;
49812;SDS011;35706;52.100;5.056;2023-03-01T03:49:18;21.40;;;10.85;;
49812;SDS011;35706;52.100;5.056;2023-03-01T03:50:19;17.45;;;10.82;;
49812;SDS011;35706;52.100;5.056;2023-03-01T03:51:19;18.58;;;10.30;;
49812;SDS011;35706;52.100;5.056;2023-03-01T03:52:19;18.30;;;11.77;;
49812;SDS011;35706;52.100;5.056;2023-03-01T03:53:20;17.45;;;11.00;;
49812;SDS011;35706;52.100;5.056;2023-03-01T03:54:22;19.17;;;11.05;;
49812;SDS011;35706;52.100;5.056;2023-03-01T03:55:22;19.38;;;11.43;;
49812;SDS011;35706;52.100;5.056;2023-03-01T03:56:27;16.48;;;11.25;;
49812;SDS011;35706;52.100;5.056;2023-03-01T03:57:28;14.77;;;10.70;;
49812;SDS011;35706;52.100;5.056;2023-03-01T03:58:28;18.40;;;10.73;;
49812;SDS011;35706;52.100;5.056;2023-03-01T03:59:28;14.90;;;10.57;;
49812;SDS011;35706;52.100;5.056;2023-03-01T04:00:28;16.07;;;9.80;;
49812;SDS011;35706;52.100;5.056;2023-03-01T04:01:29;13.82;;;9.48;;
49812;SDS011;35706;52.100;5.056;2023-03-01T04:02:29;16.00;;;10.27;;
49812;SDS011;35706;52.100;5.056;2023-03-01T04:03:30;13.25;;;9.77;;
49812;SDS011;35706;52.100;5.056;2023-03-01T04:04:31;17.57;;;10.03;;
49812;SDS011;35706;52.100;5.056;2023-03-01T04:05:32;16.27;;;10.02;;
49812;SDS011;35706;52.100;5.056;2023-03-01T04:06:32;12.82;;;10.00;;
49812;SDS011;35706;52.100;5.056;2023-03-01T04:07:33;15.13;;;10.43;;
49812;SDS011;35706;52.100;5.056;2023-03-01T04:08:34;18.95;;;10.20;;
49812;SDS011;35706;52.100;5.056;2023-03-01T04:09:34;18.45;;;10.50;;
49812;SDS011;35706;52.100;5.056;2023-03-01T04:10:39;14.35;;;9.77;;
49812;SDS011;35706;52.100;5.056;2023-03-01T04:11:41;15.48;;;9.85;;
49812;SDS011;35706;52.100;5.056;2023-03-01T04:12:42;13.98;;;10.55;;
49812;SDS011;35706;52.100;5.056;2023-03-01T04:13:43;14.68;;;9.63;;
49812;SDS011;35706;52.100;5.056;2023-03-01T04:14:43;13.23;;;10.50;;
49812;SDS011;35706;52.100;5.056;2023-03-01T04:15:43;14.40;;;9.55;;
49812;SDS011;35706;52.100;5.056;2023-03-01T04:16:44;17.52;;;10.05;;
49812;SDS011;35706;52.100;5.056;2023-03-01T04:17:45;13.00;;;9.43;;
49812;SDS011;35706;52.100;5.056;2023-03-01T04:18:46;14.48;;;9.52;;
49812;SDS011;35706;52.100;5.056;2023-03-01T04:19:46;14.30;;;9.40;;
49812;SDS011;35706;52.100;5.056;2023-03-01T04:20:48;14.45;;;9.25;;
49812;SDS011;35706;52.100;5.056;2023-03-01T04:21:51;13.50;;;9.25;;
49812;SDS011;35706;52.100;5.056;2023-03-01T04:22:53;18.10;;;9.95;;
49812;SDS011;35706;52.100;5.056;2023-03-01T04:24:16;12.63;;;8.70;;
49812;SDS011;35706;52.100;5.056;2023-03-01T04:25:16;19.03;;;10.40;;
49812;SDS011;35706;52.100;5.056;2023-03-01T04:26:16;14.77;;;9.87;;
49812;SDS011;35706;52.100;5.056;2023-03-01T04:27:17;16.13;;;9.32;;
49812;SDS011;35706;52.100;5.056;2023-03-01T04:28:17;12.98;;;8.77;;
49812;SDS011;35706;52.100;5.056;2023-03-01T04:29:17;18.23;;;10.33;;
49812;SDS011;35706;52.100;5.056;2023-03-01T04:30:18;16.55;;;9.52;;
49812;SDS011;35706;52.100;5.056;2023-03-01T04:31:18;16.83;;;9.80;;
49812;SDS011;35706;52.100;5.056;2023-03-01T04:32:21;13.37;;;9.80;;
49812;SDS011;35706;52.100;5.056;2023-03-01T04:33:21;16.35;;;10.82;;
49812;SDS011;35706;52.100;5.056;2023-03-01T04:34:22;14.98;;;9.48;;
49812;SDS011;35706;52.100;5.056;2023-03-01T04:35:22;15.88;;;10.90;;
49812;SDS011;35706;52.100;5.056;2023-03-01T04:36:24;15.13;;;9.40;;
49812;SDS011;35706;52.100;5.056;2023-03-01T04:37:26;14.13;;;9.20;;
49812;SDS011;35706;52.100;5.056;2023-03-01T04:38:27;14.52;;;9.90;;
49812;SDS011;35706;52.100;5.056;2023-03-01T04:39:27;17.37;;;9.60;;
49812;SDS011;35706;52.100;5.056;2023-03-01T04:40:28;13.65;;;8.95;;
49812;SDS011;35706;52.100;5.056;2023-03-01T04:41:28;12.60;;;9.98;;
49812;SDS011;35706;52.100;5.056;2023-03-01T04:42:29;13.50;;;9.80;;
49812;SDS011;35706;52.100;5.056;2023-03-01T04:43:29;14.60;;;9.83;;
49812;SDS011;35706;52.100;5.056;2023-03-01T04:44:29;14.07;;;8.83;;
49812;SDS011;35706;52.100;5.056;2023-03-01T04:45:31;14.50;;;9.47;;
49812;SDS011;35706;52.100;5.056;2023-03-01T04:46:34;14.70;;;9.37;;
49812;SDS011;35706;52.100;5.056;2023-03-01T04:47:35;14.10;;;10.07;;
49812;SDS011;35706;52.100;5.056;2023-03-01T04:48:38;14.30;;;8.83;;
49812;SDS011;35706;52.100;5.056;2023-03-01T04:49:39;14.73;;;9.20;;
49812;SDS011;35706;52.100;5.056;2023-03-01T04:50:40;16.30;;;10.00;;
49812;SDS011;35706;52.100;5.056;2023-03-01T04:51:40;14.80;;;9.57;;
49812;SDS011;35706;52.100;5.056;2023-03-01T04:52:40;15.83;;;9.73;;
49812;SDS011;35706;52.100;5.056;2023-03-01T04:53:41;15.60;;;10.03;;
49812;SDS011;35706;52.100;5.056;2023-03-01T04:54:42;16.37;;;10.20;;
49812;SDS011;35706;52.100;5.056;2023-03-01T04:55:43;14.80;;;9.90;;
49812;SDS011;35706;52.100;5.056;2023-03-01T04:56:43;14.27;;;9.27;;
49812;SDS011;35706;52.100;5.056;2023-03-01T04:57:43;13.57;;;8.83;;
49812;SDS011;35706;52.100;5.056;2023-03-01T04:58:44;14.50;;;9.70;;
49812;SDS011;35706;52.100;5.056;2023-03-01T04:59:45;15.50;;;9.40;;
49812;SDS011;35706;52.100;5.056;2023-03-01T05:00:45;13.60;;;9.27;;
49812;SDS011;35706;52.100;5.056;2023-03-01T05:01:45;13.97;;;8.93;;
49812;SDS011;35706;52.100;5.056;2023-03-01T05:02:46;14.03;;;9.37;;
49812;SDS011;35706;52.100;5.056;2023-03-01T05:03:53;20.65;;;9.57;;
49812;SDS011;35706;52.100;5.056;2023-03-01T05:04:53;17.40;;;9.77;;
49812;SDS011;35706;52.100;5.056;2023-03-01T05:05:58;14.90;;;10.03;;
49812;SDS011;35706;52.100;5.056;2023-03-01T05:06:59;15.90;;;9.73;;
49812;SDS011;35706;52.100;5.056;2023-03-01T05:08:01;20.55;;;10.52;;
49812;SDS011;35706;52.100;5.056;2023-03-01T05:09:04;16.58;;;9.52;;
49812;SDS011;35706;52.100;5.056;2023-03-01T05:10:04;15.10;;;9.23;;
49812;SDS011;35706;52.100;5.056;2023-03-01T05:11:05;15.32;;;9.85;;
49812;SDS011;35706;52.100;5.056;2023-03-01T05:12:08;17.10;;;9.17;;
49812;SDS011;35706;52.100;5.056;2023-03-01T05:13:09;16.83;;;9.90;;
49812;SDS011;35706;52.100;5.056;2023-03-01T05:14:10;14.77;;;9.87;;
49812;SDS011;35706;52.100;5.056;2023-03-01T05:15:11;14.52;;;9.13;;
49812;SDS011;35706;52.100;5.056;2023-03-01T05:16:12;13.37;;;9.10;;
49812;SDS011;35706;52.100;5.056;2023-03-01T05:17:12;14.00;;;8.80;;
49812;SDS011;35706;52.100;5.056;2023-03-01T05:18:13;12.93;;;8.90;;
49812;SDS011;35706;52.100;5.056;2023-03-01T05:19:13;11.33;;;9.03;;
49812;SDS011;35706;52.100;5.056;2023-03-01T05:20:15;19.00;;;9.77;;
49812;SDS011;35706;52.100;5.056;2023-03-01T05:21:16;13.25;;;9.50;;
49812;SDS011;35706;52.100;5.056;2023-03-01T05:22:16;17.07;;;9.67;;
49812;SDS011;35706;52.100;5.056;2023-03-01T05:23:17;14.83;;;9.80;;
49812;SDS011;35706;52.100;5.056;2023-03-01T05:24:18;14.45;;;8.98;;
49812;SDS011;35706;52.100;5.056;2023-03-01T05:25:18;15.00;;;9.70;;
49812;SDS011;35706;52.100;5.056;2023-03-01T05:26:19;15.93;;;9.97;;
49812;SDS011;35706;52.100;5.056;2023-03-01T05:27:21;13.47;;;9.00;;
49812;SDS011;35706;52.100;5.056;2023-03-01T05:28:22;14.03;;;9.53;;
49812;SDS011;35706;52.100;5.056;2023-03-01T05:29:23;14.33;;;9.90;;
49812;SDS011;35706;52.100;5.056;2023-03-01T05:30:27;15.80;;;9.30;;
49812;SDS011;35706;52.100;5.056;2023-03-01T05:31:27;14.93;;;9.47;;
49812;SDS011;35706;52.100;5.056;2023-03-01T05:32:28;19.33;;;10.10;;
49812;SDS011;35706;52.100;5.056;2023-03-01T05:33:32;13.90;;;9.60;;
49812;SDS011;35706;52.100;5.056;2023-03-01T05:34:33;13.00;;;8.70;;
49812;SDS011;35706;52.100;5.056;2023-03-01T05:35:35;15.07;;;9.53;;
49812;SDS011;35706;52.100;5.056;2023-03-01T05:36:36;14.60;;;9.50;;
49812;SDS011;35706;52.100;5.056;2023-03-01T05:37:36;16.70;;;9.90;;
49812;SDS011;35706;52.100;5.056;2023-03-01T05:38:36;15.00;;;9.93;;
49812;SDS011;35706;52.100;5.056;2023-03-01T05:39:37;17.03;;;9.87;;
49812;SDS011;35706;52.100;5.056;2023-03-01T05:40:37;14.40;;;9.07;;
49812;SDS011;35706;52.100;5.056;2023-03-01T05:41:38;18.40;;;11.23;;
49812;SDS011;35706;52.100;5.056;2023-03-01T05:42:38;19.63;;;10.40;;
49812;SDS011;35706;52.100;5.056;2023-03-01T05:43:38;13.97;;;10.23;;
49812;SDS011;35706;52.100;5.056;2023-03-01T05:44:41;17.67;;;9.90;;
49812;SDS011;35706;52.100;5.056;2023-03-01T05:45:42;19.67;;;10.27;;
49812;SDS011;35706;52.100;5.056;2023-03-01T05:46:42;15.53;;;10.90;;
49812;SDS011;35706;52.100;5.056;2023-03-01T05:47:44;26.13;;;11.13;;
49812;SDS011;35706;52.100;5.056;2023-03-01T05:48:45;18.23;;;10.47;;
49812;SDS011;35706;52.100;5.056;2023-03-01T05:49:48;21.80;;;11.00;;
49812;SDS011;35706;52.100;5.056;2023-03-01T05:50:50;20.23;;;11.10;;
49812;SDS011;35706;52.100;5.056;2023-03-01T05:51:50;18.17;;;11.40;;
49812;SDS011;35706;52.100;5.056;2023-03-01T05:52:56;16.17;;;10.33;;
49812;SDS011;35706;52.100;5.056;2023-03-01T05:53:58;19.60;;;11.33;;
49812;SDS011;35706;52.100;5.056;2023-03-01T05:54:58;18.73;;;11.20;;
49812;SDS011;35706;52.100;5.056;2023-03-01T05:55:59;17.93;;;11.00;;
49812;SDS011;35706;52.100;5.056;2023-03-01T05:57:00;19.50;;;11.63;;
49812;SDS011;35706;52.100;5.056;2023-03-01T05:58:04;18.90;;;11.43;;
49812;SDS011;35706;52.100;5.056;2023-03-01T05:59:07;19.53;;;12.03;;
49812;SDS011;35706;52.100;5.056;2023-03-01T06:00:08;19.77;;;11.07;;
49812;SDS011;35706;52.100;5.056;2023-03-01T06:01:12;20.10;;;11.13;;
49812;SDS011;35706;52.100;5.056;2023-03-01T06:02:13;19.37;;;11.00;;
49812;SDS011;35706;52.100;5.056;2023-03-01T06:03:14;20.17;;;10.87;;
49812;SDS011;35706;52.100;5.056;2023-03-01T06:04:17;22.27;;;11.30;;
49812;SDS011;35706;52.100;5.056;2023-03-01T06:05:17;18.70;;;11.30;;
49812;SDS011;35706;52.100;5.056;2023-03-01T06:06:18;19.30;;;11.23;;
49812;SDS011;35706;52.100;5.056;2023-03-01T06:07:18;18.13;;;11.83;;
49812;SDS011;35706;52.100;5.056;2023-03-01T06:08:18;19.30;;;11.23;;
49812;SDS011;35706;52.100;5.056;2023-03-01T06:09:20;19.13;;;10.48;;
49812;SDS011;35706;52.100;5.056;2023-03-01T06:10:21;18.53;;;11.67;;
49812;SDS011;35706;52.100;5.056;2023-03-01T06:11:22;18.87;;;11.37;;
49812;SDS011;35706;52.100;5.056;2023-03-01T06:12:22;20.83;;;10.80;;
49812;SDS011;35706;52.100;5.056;2023-03-01T06:13:23;18.10;;;10.17;;
49812;SDS011;35706;52.100;5.056;2023-03-01T06:14:24;19.27;;;10.37;;
49812;SDS011;35706;52.100;5.056;2023-03-01T06:15:25;14.37;;;10.00;;
49812;SDS011;35706;52.100;5.056;2023-03-01T06:16:25;22.37;;;10.87;;
49812;SDS011;35706;52.100;5.056;2023-03-01T06:17:28;15.43;;;10.10;;
49812;SDS011;35706;52.100;5.056;2023-03-01T06:18:29;15.50;;;10.17;;
49812;SDS011;35706;52.100;5.056;2023-03-01T06:19:29;18.80;;;10.47;;